VNKT Airport Information

Runway Information
Runway 02 Length 10007 ft width 148 ft
Elevation 4313 ft Threshold 0 ft Heading 22
Runway 20 Length 10007 ft Width 148 ft
Elevation 4387 ft Threshold 400 ft Heading 202
Airport Frequencies
Type APP Name KATHMANDU Frequency 120.6 MHZ
Type ATIS Name KATHMANDU Frequency 112.3 MHZ
Type GND Name KATHMANDU Frequency 121.9 MHZ
Type RDO Name KATHMANDU Frequency 292.3 MHZ
Type TWR Name KATHMANDU Frequency 118.1 MHZ
Airport Navaids
Type NDB Name Kathmandu Frequency 318 KHZ
Type VOR-DME Name Kathmandu Frequency 112300 KHZ
Type NDB Name Nalinchowk Frequency 252 KHZ
Airport Weather Information & NOTAM
ADDS - METARS form results

(0750 UTC 23 October 2021)
Data provider http://aviationweather.gov/metar/data/
 
METAR text: VNKT 230750Z 22009KT 190V250 7000 FEW015 SCT030 BKN100 24/18 Q1019 NOSIG
Conditions at: VNKT (KATHMANDU INTL A, NP) observed 0750 UTC 23 October 2021
Temperature: 24.0°C (75°F)
Dewpoint: 18.0°C (64°F) [RH = 69%]
Pressure (altimeter): 30.09 inches Hg (1019.0 mb)
Winds: from the SW (220 degrees) at 10 MPH (9 knots; 4.6 m/s)
Visibility: 4 miles ( 7 km)
Ceiling: 10000 feet AGL
Clouds: few clouds at 1500 feet AGL
scattered clouds at 3000 feet AGL
broken clouds at 10000 feet AGL
Weather: no significant weather observed at this time

METAR text: VNKT 230720Z 26006KT 210V320 8000 FEW015 SCT030 BKN100 24/17 Q1019 NOSIG
Conditions at: VNKT (KATHMANDU INTL A, NP) observed 0720 UTC 23 October 2021
Temperature: 24.0°C (75°F)
Dewpoint: 17.0°C (63°F) [RH = 65%]
Pressure (altimeter): 30.09 inches Hg (1019.0 mb)
Winds: from the W (260 degrees) at 7 MPH (6 knots; 3.1 m/s)
Visibility: 5 miles ( 8 km)
Ceiling: 10000 feet AGL
Clouds: few clouds at 1500 feet AGL
scattered clouds at 3000 feet AGL
broken clouds at 10000 feet AGL
Weather: no significant weather observed at this time